Time;durP1;ratioP1;P1;durP2;ratioP2;P2;SDS_P1;SDS_P2;PMS_P1;PMS_P2;Temp;Humidity;BMP_temperature;BMP_pressure;BME280_temperature;BME280_humidity;BME280_pressure;Samples;Min_cycle;Max_cycle;Signal;HPM_P1;HPM_P2
2024/03/22 00:00:42;;;;;;;7.00;3.20;;;;;12.30;99243.00;;;;4917757;29;20043;-64
2024/03/22 00:03:07;;;;;;;3.17;2.80;;;;;12.30;99246.00;;;;4917838;29;20051;-64
2024/03/22 00:05:33;;;;;;;4.97;2.83;;;;;12.30;99238.00;;;;4921161;29;20087;-64
2024/03/22 00:07:58;;;;;;;3.80;3.40;;;;;12.40;99228.00;;;;4921872;29;20039;-64
2024/03/22 00:10:24;;;;;;;4.18;2.90;;;;;12.50;99227.00;;;;4921501;29;20500;-64
2024/03/22 00:12:50;;;;;;;4.47;2.80;;;;;12.50;99219.00;;;;4921632;29;20054;-64
2024/03/22 00:15:15;;;;;;;5.50;3.95;;;;;12.50;99233.00;;;;4921523;29;20079;-64
2024/03/22 00:17:43;;;;;;;5.22;3.20;;;;;12.50;99226.00;;;;4921178;29;20051;-65
2024/03/22 00:20:09;;;;;;;5.13;3.10;;;;;12.40;99226.00;;;;4918521;29;20044;-64
2024/03/22 00:22:35;;;;;;;3.42;3.05;;;;;12.30;99226.00;;;;4902462;29;20044;-64
2024/03/22 00:25:00;;;;;;;5.18;3.65;;;;;12.30;99228.00;;;;4902997;29;20086;-64
2024/03/22 00:27:26;;;;;;;4.13;3.17;;;;;12.20;99230.00;;;;4902772;29;20058;-64
2024/03/22 00:29:52;;;;;;;5.65;3.20;;;;;12.10;99216.00;;;;4902847;29;20048;-64
2024/03/22 00:32:17;;;;;;;4.57;3.22;;;;;12.00;99214.00;;;;4902547;29;20095;-64
2024/03/22 00:34:43;;;;;;;4.15;3.15;;;;;12.00;99215.00;;;;4902809;29;20505;-64
2024/03/22 00:37:09;;;;;;;8.25;3.28;;;;;12.00;99208.00;;;;4918239;29;20040;-64
2024/03/22 00:39:35;;;;;;;4.88;3.25;;;;;11.90;99207.00;;;;4902671;29;20056;-64
2024/03/22 00:42:01;;;;;;;8.40;3.55;;;;;11.90;99194.00;;;;4918610;29;20386;-64
2024/03/22 00:44:27;;;;;;;6.65;4.13;;;;;11.90;99197.00;;;;4902899;29;20127;-64
2024/03/22 00:46:52;;;;;;;5.80;3.00;;;;;12.10;99191.00;;;;4915856;29;20497;-64
2024/03/22 00:49:18;;;;;;;4.13;3.47;;;;;12.10;99195.00;;;;4922034;29;20056;-64
2024/03/22 00:51:44;;;;;;;3.92;2.97;;;;;12.10;99196.00;;;;4921654;29;20047;-64
2024/03/22 00:54:10;;;;;;;4.88;3.25;;;;;12.00;99191.00;;;;4921978;29;20047;-64
2024/03/22 00:56:36;;;;;;;3.45;2.95;;;;;12.00;99182.00;;;;4922096;29;20043;-64
2024/03/22 00:59:02;;;;;;;3.40;3.03;;;;;12.00;99180.00;;;;4923169;29;20100;-64
2024/03/22 01:01:27;;;;;;;5.00;3.58;;;;;12.00;99180.00;;;;4940556;29;20043;-65
2024/03/22 01:03:53;;;;;;;3.83;3.00;;;;;12.00;99176.00;;;;4944715;29;20056;-65
2024/03/22 01:06:23;;;;;;;6.05;3.00;;;;;11.90;99169.00;;;;4946054;29;20099;-65
2024/03/22 01:08:49;;;;;;;4.80;2.70;;;;;11.80;99165.00;;;;4945655;29;20062;-65
2024/03/22 01:11:15;;;;;;;4.90;3.05;;;;;11.80;99159.00;;;;4945128;29;20031;-65
2024/03/22 01:13:41;;;;;;;7.10;3.08;;;;;11.80;99161.00;;;;4945699;29;20036;-64
2024/03/22 01:16:09;;;;;;;4.75;3.20;;;;;11.70;99162.00;;;;4943197;29;20055;-64
2024/03/22 01:18:36;;;;;;;4.35;3.50;;;;;11.70;99166.00;;;;4943439;29;20030;-64
2024/03/22 01:21:02;;;;;;;4.38;3.28;;;;;11.80;99164.00;;;;4942461;29;20091;-64
2024/03/22 01:23:28;;;;;;;5.15;3.35;;;;;11.80;99163.00;;;;4929907;29;20064;-65
2024/03/22 01:25:53;;;;;;;5.40;3.40;;;;;11.80;99167.00;;;;4945451;29;20032;-65
2024/03/22 01:28:19;;;;;;;6.32;3.47;;;;;11.70;99158.00;;;;4942403;29;20071;-64
2024/03/22 01:30:44;;;;;;;6.57;3.55;;;;;11.70;99153.00;;;;4938836;29;20040;-65
2024/03/22 01:33:10;;;;;;;5.22;3.60;;;;;11.70;99147.00;;;;4932582;29;20046;-65
2024/03/22 01:35:36;;;;;;;5.90;3.60;;;;;11.80;99155.00;;;;4933699;29;20074;-65
2024/03/22 01:38:01;;;;;;;6.55;4.22;;;;;11.80;99147.00;;;;4917396;29;20086;-64
2024/03/22 01:40:27;;;;;;;5.95;3.60;;;;;11.90;99145.00;;;;4933677;29;20039;-65
2024/03/22 01:42:55;;;;;;;5.90;4.25;;;;;11.80;99148.00;;;;4941529;29;20050;-65
2024/03/22 01:45:24;;;;;;;8.80;4.00;;;;;11.60;99146.00;;;;4942071;29;20055;-65
2024/03/22 01:47:53;;;;;;;5.72;3.92;;;;;11.80;99147.00;;;;4942790;29;20048;-64
2024/03/22 01:50:20;;;;;;;5.57;3.97;;;;;11.80;99147.00;;;;4942183;29;20031;-65
2024/03/22 01:52:46;;;;;;;4.90;3.90;;;;;11.60;99145.00;;;;4942191;29;20055;-65
2024/03/22 01:55:12;;;;;;;3.75;3.40;;;;;11.60;99142.00;;;;4940695;29;20388;-65
2024/03/22 01:57:38;;;;;;;6.03;3.45;;;;;11.50;99140.00;;;;4941776;29;20027;-65
2024/03/22 02:00:06;;;;;;;4.30;3.40;;;;;11.30;99137.00;;;;4924125;29;20071;-65
2024/03/22 02:02:39;;;;;;;4.03;3.33;;;;;11.30;99143.00;;;;4921528;29;20057;-65
2024/03/22 02:05:16;;;;;;;7.47;4.13;;;;;11.30;99142.00;;;;4920096;29;20452;-64
2024/03/22 02:07:42;;;;;;;9.80;4.43;;;;;11.30;99142.00;;;;4935606;29;20107;-65
2024/03/22 02:10:10;;;;;;;4.30;3.85;;;;;11.20;99139.00;;;;4919697;29;20044;-64
2024/03/22 02:12:37;;;;;;;5.60;3.85;;;;;11.20;99145.00;;;;4917723;29;20044;-65
2024/03/22 02:15:03;;;;;;;5.63;3.58;;;;;11.20;99139.00;;;;4935184;29;20440;-65
2024/03/22 02:17:29;;;;;;;6.68;3.80;;;;;11.20;99136.00;;;;4919650;29;20040;-64
2024/03/22 02:19:54;;;;;;;5.05;3.60;;;;;11.20;99130.00;;;;4903622;29;20075;-65
2024/03/22 02:22:20;;;;;;;5.65;3.47;;;;;11.30;99134.00;;;;4919203;29;20175;-65
2024/03/22 02:24:45;;;;;;;6.90;4.03;;;;;11.40;99124.00;;;;4919257;29;20047;-65
2024/03/22 02:27:11;;;;;;;4.38;3.58;;;;;11.40;99121.00;;;;4918306;29;20527;-65
2024/03/22 02:29:36;;;;;;;7.25;3.97;;;;;11.50;99114.00;;;;4935033;29;20086;-65
2024/03/22 02:32:03;;;;;;;5.60;4.30;;;;;11.60;99107.00;;;;4919102;29;20053;-65
2024/03/22 02:34:29;;;;;;;7.18;4.43;;;;;11.60;99110.00;;;;4903384;29;20088;-65
2024/03/22 02:36:54;;;;;;;6.90;4.57;;;;;11.70;99111.00;;;;4919013;29;20044;-65
2024/03/22 02:39:20;;;;;;;9.90;4.65;;;;;11.70;99118.00;;;;4919102;29;20043;-64
2024/03/22 02:41:45;;;;;;;4.75;4.18;;;;;11.70;99112.00;;;;4918653;29;20354;-65
2024/03/22 02:44:11;;;;;;;5.43;3.88;;;;;11.70;99107.00;;;;4918971;29;20146;-65
2024/03/22 02:46:37;;;;;;;5.13;3.60;;;;;11.70;99110.00;;;;4918684;29;20036;-65
2024/03/22 02:49:02;;;;;;;4.45;3.70;;;;;11.60;99101.00;;;;4910910;29;20141;-65
2024/03/22 02:51:28;;;;;;;4.85;3.58;;;;;11.50;99092.00;;;;4918584;29;20088;-65
2024/03/22 02:53:54;;;;;;;4.40;3.53;;;;;11.40;99091.00;;;;4918827;29;20475;-65
2024/03/22 02:56:20;;;;;;;7.18;3.75;;;;;11.30;99085.00;;;;4918520;29;20051;-65
2024/03/22 02:58:45;;;;;;;4.72;3.92;;;;;11.30;99089.00;;;;4918691;29;20099;-65
2024/03/22 03:01:11;;;;;;;4.55;3.88;;;;;11.40;99083.00;;;;4918633;29;20413;-65
2024/03/22 03:03:37;;;;;;;6.63;3.80;;;;;11.50;99083.00;;;;4918519;29;20082;-65
2024/03/22 03:06:02;;;;;;;4.40;4.00;;;;;11.40;99079.00;;;;4918538;29;20051;-65
2024/03/22 03:08:28;;;;;;;4.93;3.72;;;;;11.30;99080.00;;;;4920193;29;20047;-65
2024/03/22 03:10:54;;;;;;;6.78;4.30;;;;;11.30;99083.00;;;;4921159;29;20043;-65
2024/03/22 03:13:19;;;;;;;4.10;3.40;;;;;11.30;99081.00;;;;4920680;29;20051;-65
2024/03/22 03:15:45;;;;;;;4.47;3.85;;;;;11.20;99077.00;;;;4919455;29;20110;-65
2024/03/22 03:18:11;;;;;;;6.82;3.33;;;;;11.10;99079.00;;;;4943173;29;20040;-65
2024/03/22 03:20:37;;;;;;;5.22;3.92;;;;;11.00;99077.00;;;;4903246;29;20051;-65
2024/03/22 03:23:03;;;;;;;4.88;3.70;;;;;11.10;99081.00;;;;4918714;29;20051;-65
2024/03/22 03:25:29;;;;;;;5.72;3.72;;;;;11.10;99078.00;;;;4918981;29;20044;-64
2024/03/22 03:27:55;;;;;;;5.50;3.65;;;;;11.10;99078.00;;;;4918759;29;20043;-65
2024/03/22 03:30:20;;;;;;;5.85;3.90;;;;;11.20;99077.00;;;;4918655;29;20048;-64
2024/03/22 03:32:46;;;;;;;5.20;3.40;;;;;11.20;99078.00;;;;4921406;29;20040;-65
2024/03/22 03:35:11;;;;;;;7.80;3.92;;;;;11.30;99078.00;;;;4942034;29;20091;-64
2024/03/22 03:37:37;;;;;;;6.45;4.07;;;;;11.30;99069.00;;;;4941464;29;20179;-64
2024/03/22 03:40:04;;;;;;;4.63;4.13;;;;;11.20;99070.00;;;;4918684;29;20673;-64
2024/03/22 03:42:29;;;;;;;6.45;4.35;;;;;11.10;99074.00;;;;4933635;29;20055;-64
2024/03/22 03:44:55;;;;;;;7.18;4.85;;;;;11.00;99069.00;;;;4933891;29;20050;-65
2024/03/22 03:47:21;;;;;;;5.47;3.92;;;;;10.90;99072.00;;;;4918013;29;20042;-64
2024/03/22 03:49:46;;;;;;;5.60;4.70;;;;;10.80;99058.00;;;;4933844;29;20066;-65
2024/03/22 03:52:12;;;;;;;6.13;4.50;;;;;10.80;99055.00;;;;4917752;29;20075;-64
2024/03/22 03:54:38;;;;;;;6.97;3.83;;;;;10.90;99056.00;;;;4933838;29;20097;-64
2024/03/22 03:57:03;;;;;;;3.90;3.13;;;;;11.00;99050.00;;;;4918051;29;20401;-64
2024/03/22 03:59:29;;;;;;;5.70;3.80;;;;;11.00;99042.00;;;;4918016;29;20488;-64
2024/03/22 04:01:55;;;;;;;4.07;3.50;;;;;10.90;99038.00;;;;4933410;29;20083;-65
2024/03/22 04:04:20;;;;;;;5.38;4.00;;;;;10.90;99042.00;;;;4918014;29;20055;-65
2024/03/22 04:06:46;;;;;;;4.40;3.72;;;;;11.00;99040.00;;;;4917907;29;20040;-64
2024/03/22 04:09:12;;;;;;;4.78;3.72;;;;;11.00;99034.00;;;;4920967;29;20086;-64
2024/03/22 04:11:37;;;;;;;5.93;3.45;;;;;11.00;99037.00;;;;4928772;29;20103;-65
2024/03/22 04:14:05;;;;;;;5.45;3.35;;;;;10.90;99039.00;;;;4928737;29;20055;-65
2024/03/22 04:16:31;;;;;;;5.90;4.28;;;;;10.90;99038.00;;;;4927717;29;20469;-65
2024/03/22 04:18:56;;;;;;;4.78;3.70;;;;;10.90;99033.00;;;;4919689;29;20032;-64
2024/03/22 04:21:22;;;;;;;7.78;3.90;;;;;10.70;99031.00;;;;4921163;29;20070;-64
2024/03/22 04:23:47;;;;;;;5.03;3.80;;;;;10.70;99021.00;;;;4918523;29;20493;-65
2024/03/22 04:26:14;;;;;;;4.72;3.88;;;;;10.80;99019.00;;;;4917705;29;20044;-65
2024/03/22 04:28:40;;;;;;;7.22;4.00;;;;;10.80;99021.00;;;;4924476;29;20040;-65
2024/03/22 04:31:10;;;;;;;5.43;3.92;;;;;11.00;99024.00;;;;4925891;29;20047;-65
2024/03/22 04:33:37;;;;;;;6.03;4.07;;;;;11.10;99017.00;;;;4926397;29;20050;-65
2024/03/22 04:36:03;;;;;;;5.30;3.80;;;;;11.10;99013.00;;;;4941850;29;20055;-65
2024/03/22 04:38:30;;;;;;;4.47;3.70;;;;;11.20;99023.00;;;;4926484;29;20051;-65
2024/03/22 04:40:56;;;;;;;6.32;4.03;;;;;11.20;99024.00;;;;4925859;29;20095;-65
2024/03/22 04:43:25;;;;;;;6.47;4.25;;;;;11.20;99023.00;;;;4941452;29;20449;-65
2024/03/22 04:45:51;;;;;;;10.55;4.40;;;;;11.10;99023.00;;;;4919202;29;20408;-65
2024/03/22 04:48:19;;;;;;;7.93;3.72;;;;;11.10;99031.00;;;;4916048;29;20036;-65
2024/03/22 04:50:45;;;;;;;8.30;4.15;;;;;11.00;99024.00;;;;4920709;29;20039;-65
2024/03/22 04:53:11;;;;;;;5.82;4.60;;;;;11.00;99018.00;;;;4922517;29;20118;-65
2024/03/22 04:55:37;;;;;;;7.68;4.45;;;;;11.10;99025.00;;;;4922240;29;20444;-65
2024/03/22 04:58:03;;;;;;;5.35;4.30;;;;;11.00;99023.00;;;;4922373;29;20048;-65
2024/03/22 05:00:29;;;;;;;5.07;3.70;;;;;11.00;99021.00;;;;4920781;29;20067;-65
2024/03/22 05:02:54;;;;;;;7.05;4.95;;;;;11.00;99016.00;;;;4920812;29;20062;-65
2024/03/22 05:05:20;;;;;;;7.30;4.28;;;;;11.00;99021.00;;;;4920649;29;20063;-65
2024/03/22 05:07:46;;;;;;;5.03;3.90;;;;;11.00;99021.00;;;;4920613;29;20409;-65
2024/03/22 05:10:12;;;;;;;11.75;4.47;;;;;10.90;99023.00;;;;4936438;29;20044;-65
2024/03/22 05:12:38;;;;;;;5.55;4.65;;;;;10.90;99023.00;;;;4920543;29;20040;-65
2024/03/22 05:15:04;;;;;;;9.32;5.20;;;;;10.80;99017.00;;;;4936404;29;20055;-65
2024/03/22 05:17:31;;;;;;;12.30;7.60;;;;;10.80;99026.00;;;;4920099;29;20042;-65
2024/03/22 05:20:01;;;;;;;5.72;4.72;;;;;10.80;99029.00;;;;4920798;29;20043;-65
2024/03/22 05:22:27;;;;;;;7.57;5.18;;;;;10.80;99026.00;;;;4920614;29;20492;-65
2024/03/22 05:24:53;;;;;;;10.70;5.13;;;;;10.90;99032.00;;;;4920806;29;20051;-65
2024/03/22 05:27:18;;;;;;;10.95;7.85;;;;;10.80;99030.00;;;;4920323;29;20506;-65
2024/03/22 05:29:44;;;;;;;6.63;4.68;;;;;10.80;99031.00;;;;4936196;29;20048;-65
2024/03/22 05:32:10;;;;;;;9.43;4.93;;;;;10.80;99028.00;;;;4920089;29;20067;-65
2024/03/22 05:34:36;;;;;;;8.88;5.15;;;;;10.80;99029.00;;;;4935818;29;20051;-65
2024/03/22 05:37:02;;;;;;;5.03;4.53;;;;;10.80;99031.00;;;;4904609;29;20051;-65
2024/03/22 05:39:28;;;;;;;8.98;5.82;;;;;10.90;99022.00;;;;4920158;29;20098;-65
2024/03/22 05:41:54;;;;;;;9.52;4.95;;;;;10.90;99027.00;;;;4919921;29;20452;-65
2024/03/22 05:44:22;;;;;;;6.65;4.68;;;;;11.00;99020.00;;;;4920232;29;20047;-65
2024/03/22 05:46:47;;;;;;;8.80;5.30;;;;;11.00;99011.00;;;;4935728;29;20052;-65
2024/03/22 05:49:13;;;;;;;7.40;5.10;;;;;10.90;99011.00;;;;4927816;29;20047;-65
2024/03/22 05:51:39;;;;;;;9.10;5.80;;;;;11.00;99008.00;;;;4919878;29;20048;-67
2024/03/22 05:54:05;;;;;;;10.80;7.00;;;;;11.00;99000.00;;;;4920583;29;20048;-65
2024/03/22 05:56:30;;;;;;;8.05;5.80;;;;;11.00;99008.00;;;;4919906;29;20433;-64
2024/03/22 05:58:56;;;;;;;32.85;19.77;;;;;11.10;99000.00;;;;4919719;29;20050;-64
2024/03/22 06:01:22;;;;;;;11.55;7.70;;;;;11.30;98993.00;;;;4934784;29;20048;-64
2024/03/22 06:03:47;;;;;;;6.18;4.50;;;;;11.40;98994.00;;;;4919484;29;20048;-65
2024/03/22 06:06:13;;;;;;;10.75;5.47;;;;;11.50;98995.00;;;;4919512;29;20440;-64
2024/03/22 06:08:44;;;;;;;6.03;4.70;;;;;11.50;99001.00;;;;4935383;29;20043;-65
2024/03/22 06:11:11;;;;;;;7.78;5.07;;;;;11.60;98995.00;;;;4919368;29;20485;-66
2024/03/22 06:13:36;;;;;;;5.88;4.78;;;;;11.50;98997.00;;;;4919407;29;20496;-66
2024/03/22 06:16:03;;;;;;;6.72;5.40;;;;;11.50;99003.00;;;;4919100;29;20043;-65
2024/03/22 06:18:29;;;;;;;7.22;5.40;;;;;11.50;99005.00;;;;4926856;29;20488;-65
2024/03/22 06:20:54;;;;;;;7.05;4.97;;;;;11.50;98993.00;;;;4903663;29;20233;-64
2024/03/22 06:23:23;;;;;;;7.28;4.97;;;;;11.60;98989.00;;;;4919469;29;20043;-67
2024/03/22 06:25:52;;;;;;;10.40;5.05;;;;;11.60;98985.00;;;;4919186;29;20047;-67
2024/03/22 06:28:18;;;;;;;6.28;4.88;;;;;11.60;98982.00;;;;4919528;29;20052;-67
2024/03/22 06:30:44;;;;;;;10.52;4.90;;;;;11.60;98986.00;;;;4935612;29;20070;-67
2024/03/22 06:33:09;;;;;;;9.82;5.70;;;;;11.70;98986.00;;;;4939314;29;20044;-67
2024/03/22 06:35:35;;;;;;;6.88;4.85;;;;;11.80;98990.00;;;;4926158;29;20046;-67
2024/03/22 06:38:02;;;;;;;9.40;5.60;;;;;11.90;98989.00;;;;4939893;29;20107;-66
2024/03/22 06:40:28;;;;;;;12.15;7.72;;;;;12.10;98993.00;;;;4939150;29;20043;-66
2024/03/22 06:42:54;;;;;;;18.08;6.88;;;;;12.10;98989.00;;;;4934806;29;20604;-66
2024/03/22 06:45:20;;;;;;;12.27;7.72;;;;;12.30;98990.00;;;;4929601;29;20134;-67
2024/03/22 06:47:45;;;;;;;15.63;6.50;;;;;12.50;98992.00;;;;4943076;29;20039;-66
2024/03/22 06:50:11;;;;;;;11.00;6.88;;;;;12.60;98978.00;;;;4938151;29;20040;-66
2024/03/22 06:52:37;;;;;;;11.75;6.40;;;;;12.60;98975.00;;;;4935629;29;20068;-65
2024/03/22 06:55:03;;;;;;;12.00;6.30;;;;;12.70;98979.00;;;;4918205;29;20089;-66
2024/03/22 06:57:29;;;;;;;12.40;6.70;;;;;12.80;98978.00;;;;4913370;29;20040;-66
2024/03/22 06:59:54;;;;;;;12.02;6.40;;;;;12.80;98978.00;;;;4919500;29;20132;-66
2024/03/22 07:02:20;;;;;;;9.07;5.63;;;;;12.80;98978.00;;;;4917201;29;20047;-66
2024/03/22 07:04:46;;;;;;;16.30;8.68;;;;;12.70;98972.00;;;;4912512;29;20068;-66
2024/03/22 07:07:11;;;;;;;19.15;10.02;;;;;12.50;98967.00;;;;4913070;29;20048;-66
2024/03/22 07:09:37;;;;;;;19.30;7.40;;;;;12.50;98966.00;;;;4914949;29;20075;-66
2024/03/22 07:12:03;;;;;;;16.05;7.10;;;;;12.50;98965.00;;;;4916206;29;20063;-68
2024/03/22 07:14:29;;;;;;;20.50;7.57;;;;;12.70;98970.00;;;;4907640;29;20052;-69
2024/03/22 07:16:54;;;;;;;15.38;7.55;;;;;12.80;98967.00;;;;4926977;29;20050;-68
2024/03/22 07:19:21;;;;;;;12.15;8.07;;;;;13.00;98959.00;;;;4924623;29;20418;-67
2024/03/22 07:21:47;;;;;;;9.85;6.55;;;;;13.10;98964.00;;;;4922432;29;20064;-67
2024/03/22 07:24:14;;;;;;;11.50;6.15;;;;;13.30;98960.00;;;;4929726;29;20062;-68
2024/03/22 07:26:39;;;;;;;11.00;5.82;;;;;13.40;98954.00;;;;4927991;29;20044;-67
2024/03/22 07:29:05;;;;;;;15.35;7.25;;;;;13.40;98952.00;;;;4926566;29;20568;-67
2024/03/22 07:31:31;;;;;;;11.43;6.65;;;;;13.50;98950.00;;;;4944538;29;20057;-67
2024/03/22 07:33:56;;;;;;;10.60;6.40;;;;;13.50;98948.00;;;;4942786;29;20091;-68
2024/03/22 07:36:22;;;;;;;9.13;6.32;;;;;13.50;98949.00;;;;4937665;29;20554;-67
2024/03/22 07:38:49;;;;;;;6.50;5.70;;;;;13.60;98948.00;;;;4921362;29;20083;-67
2024/03/22 07:41:14;;;;;;;9.00;6.22;;;;;13.60;98952.00;;;;4918990;29;20504;-67
2024/03/22 07:43:40;;;;;;;8.40;6.47;;;;;13.50;98961.00;;;;4918657;29;20035;-67
2024/03/22 07:46:06;;;;;;;11.63;7.70;;;;;13.60;98955.00;;;;4918197;29;20523;-67
2024/03/22 07:48:32;;;;;;;11.65;6.65;;;;;13.60;98957.00;;;;4918079;29;20079;-67
2024/03/22 07:50:58;;;;;;;11.25;6.57;;;;;13.60;98951.00;;;;4918942;29;20052;-66
2024/03/22 07:53:24;;;;;;;9.02;6.20;;;;;13.60;98948.00;;;;4919014;29;20048;-65
2024/03/22 07:55:50;;;;;;;12.88;6.40;;;;;13.60;98954.00;;;;4933921;29;20055;-65
2024/03/22 07:58:16;;;;;;;9.60;6.85;;;;;13.50;98954.00;;;;4920001;29;20040;-68
2024/03/22 08:00:41;;;;;;;12.10;7.15;;;;;13.50;98947.00;;;;4920001;29;20056;-69
2024/03/22 08:03:08;;;;;;;12.25;7.30;;;;;13.60;98940.00;;;;4919629;29;20069;-67
2024/03/22 08:05:33;;;;;;;11.30;8.18;;;;;13.70;98942.00;;;;4918852;29;20059;-67
2024/03/22 08:07:59;;;;;;;10.05;6.05;;;;;13.70;98944.00;;;;4918294;29;20044;-67
2024/03/22 08:10:25;;;;;;;13.60;7.47;;;;;13.70;98943.00;;;;4917660;29;20130;-67
2024/03/22 08:12:50;;;;;;;9.55;6.03;;;;;13.80;98944.00;;;;4919504;29;20075;-67
2024/03/22 08:15:16;;;;;;;9.77;6.03;;;;;13.80;98934.00;;;;4920017;29;20477;-68
2024/03/22 08:17:41;;;;;;;7.30;5.90;;;;;13.90;98931.00;;;;4918468;29;20040;-67
2024/03/22 08:20:07;;;;;;;9.77;5.82;;;;;14.00;98930.00;;;;4918338;29;20111;-67
2024/03/22 08:22:33;;;;;;;11.25;6.40;;;;;14.00;98932.00;;;;4933444;29;20410;-67
2024/03/22 08:25:02;;;;;;;11.70;7.47;;;;;14.10;98928.00;;;;4918264;29;20043;-67
2024/03/22 08:27:27;;;;;;;9.70;6.60;;;;;14.10;98918.00;;;;4921439;29;20039;-67
2024/03/22 08:29:53;;;;;;;13.45;6.80;;;;;14.10;98922.00;;;;4921581;29;20080;-67
2024/03/22 08:32:19;;;;;;;14.38;6.55;;;;;14.20;98927.00;;;;4921122;29;20050;-69
2024/03/22 08:34:45;;;;;;;9.07;6.85;;;;;14.20;98919.00;;;;4921536;29;20039;-69
2024/03/22 08:37:11;;;;;;;9.15;6.53;;;;;14.20;98919.00;;;;4921278;29;20040;-69
2024/03/22 08:39:37;;;;;;;9.90;7.05;;;;;14.30;98915.00;;;;4936930;29;20052;-68
2024/03/22 08:42:05;;;;;;;14.25;8.10;;;;;14.30;98911.00;;;;4921249;29;20131;-68
2024/03/22 08:44:31;;;;;;;9.38;6.30;;;;;14.30;98909.00;;;;4921256;29;20060;-68
2024/03/22 08:46:57;;;;;;;8.73;6.25;;;;;14.40;98907.00;;;;4905212;29;20052;-69
2024/03/22 08:49:23;;;;;;;11.50;6.63;;;;;14.50;98912.00;;;;4921527;29;20051;-67
2024/03/22 08:51:49;;;;;;;10.55;5.97;;;;;14.50;98897.00;;;;4905051;29;20056;-67
2024/03/22 08:54:15;;;;;;;10.77;6.22;;;;;14.60;98896.00;;;;4921327;29;20043;-67
2024/03/22 08:56:40;;;;;;;10.35;5.88;;;;;14.70;98893.00;;;;4920746;29;20044;-68
2024/03/22 08:59:06;;;;;;;8.60;6.25;;;;;14.80;98885.00;;;;4921192;29;20520;-69
2024/03/22 09:01:32;;;;;;;11.57;6.28;;;;;14.90;98881.00;;;;4936502;29;20118;-67
2024/03/22 09:03:58;;;;;;;7.93;5.47;;;;;15.00;98884.00;;;;4921134;29;20107;-67
2024/03/22 09:06:23;;;;;;;8.88;6.15;;;;;15.20;98882.00;;;;4920994;29;20047;-67
2024/03/22 09:12:11;;;;;;;8.05;5.15;;;;;15.50;98872.00;;;;7307358;19;198710;-67
2024/03/22 09:14:37;;;;;;;10.25;4.85;;;;;15.50;98877.00;;;;7402495;19;20015;-67
2024/03/22 09:17:03;;;;;;;8.27;5.38;;;;;15.60;98867.00;;;;7427641;19;20014;-65
2024/03/22 09:19:28;;;;;;;6.68;4.88;;;;;15.70;98868.00;;;;7430479;19;20732;-66
2024/03/22 09:21:54;;;;;;;7.93;4.68;;;;;15.70;98872.00;;;;7426774;19;20007;-65
2024/03/22 09:24:20;;;;;;;7.75;5.25;;;;;15.70;98868.00;;;;7427298;19;20021;-65
2024/03/22 09:26:45;;;;;;;7.68;5.22;;;;;15.90;98865.00;;;;7425993;19;20022;-65
2024/03/22 09:29:13;;;;;;;8.20;5.10;;;;;16.00;98854.00;;;;7427261;19;20022;-65
2024/03/22 09:31:39;;;;;;;7.22;5.10;;;;;16.10;98860.00;;;;7424368;19;20014;-66
2024/03/22 09:34:05;;;;;;;7.63;5.32;;;;;16.20;98864.00;;;;7427930;19;20013;-66
2024/03/22 09:36:35;;;;;;;7.15;5.00;;;;;16.10;98866.00;;;;7426493;19;20475;-65
2024/03/22 09:39:02;;;;;;;10.80;5.38;;;;;16.20;98858.00;;;;7427225;19;20022;-66
2024/03/22 09:41:28;;;;;;;7.78;5.18;;;;;16.20;98861.00;;;;7428049;19;20014;-65
2024/03/22 09:43:58;;;;;;;8.48;5.63;;;;;16.30;98851.00;;;;7426978;19;20017;-65
2024/03/22 09:46:25;;;;;;;6.88;5.38;;;;;16.30;98851.00;;;;7428306;19;20015;-65
2024/03/22 09:48:53;;;;;;;6.47;5.35;;;;;16.50;98845.00;;;;7431837;19;20015;-66
2024/03/22 09:51:20;;;;;;;6.25;4.80;;;;;16.60;98841.00;;;;7424988;19;20022;-66
2024/03/22 09:53:49;;;;;;;9.77;5.35;;;;;16.70;98839.00;;;;7428384;19;20043;-67
2024/03/22 09:56:15;;;;;;;8.00;5.43;;;;;16.70;98842.00;;;;7433008;19;20002;-66
2024/03/22 09:58:42;;;;;;;7.25;5.00;;;;;16.80;98835.00;;;;7445913;19;20013;-66
2024/03/22 10:01:08;;;;;;;8.38;5.82;;;;;16.90;98828.00;;;;7437597;19;20070;-66
2024/03/22 10:03:34;;;;;;;10.85;5.80;;;;;17.00;98832.00;;;;7426193;19;20010;-66
2024/03/22 10:06:00;;;;;;;9.43;5.13;;;;;17.10;98824.00;;;;7424603;19;20039;-66
2024/03/22 10:08:26;;;;;;;7.07;5.32;;;;;17.20;98827.00;;;;7425277;19;20074;-66
2024/03/22 10:10:51;;;;;;;8.20;5.07;;;;;17.30;98820.00;;;;7423325;19;20011;-66
2024/03/22 10:13:17;;;;;;;8.05;5.18;;;;;17.30;98824.00;;;;7424640;19;20006;-66
2024/03/22 10:15:43;;;;;;;8.82;5.75;;;;;17.40;98823.00;;;;7426112;19;20020;-66
2024/03/22 10:18:09;;;;;;;7.93;5.72;;;;;17.50;98812.00;;;;7429048;19;20025;-65
2024/03/22 10:20:35;;;;;;;8.23;5.35;;;;;17.50;98808.00;;;;7424461;19;20018;-67
2024/03/22 10:23:01;;;;;;;6.78;5.43;;;;;17.50;98803.00;;;;7401515;19;20033;-66
2024/03/22 10:25:27;;;;;;;8.77;5.15;;;;;17.60;98810.00;;;;7396149;19;20013;-66
2024/03/22 10:27:56;;;;;;;7.80;5.20;;;;;17.80;98801.00;;;;7396390;19;20043;-66
2024/03/22 10:30:24;;;;;;;7.88;5.47;;;;;18.00;98798.00;;;;7394557;19;20014;-66
2024/03/22 10:32:50;;;;;;;8.25;5.30;;;;;18.30;98793.00;;;;7396353;19;20022;-66
2024/03/22 10:35:16;;;;;;;5.97;4.57;;;;;18.50;98800.00;;;;7396360;19;20024;-66
2024/03/22 10:37:42;;;;;;;7.38;5.40;;;;;18.70;98788.00;;;;7393649;19;20014;-66
2024/03/22 10:40:11;;;;;;;5.13;4.53;;;;;18.80;98793.00;;;;7395940;19;20019;-66
2024/03/22 10:42:39;;;;;;;7.50;4.32;;;;;18.90;98783.00;;;;7395177;19;20014;-66
2024/03/22 10:45:06;;;;;;;6.82;5.47;;;;;18.90;98779.00;;;;7395389;19;20010;-66
2024/03/22 10:47:33;;;;;;;8.75;5.78;;;;;18.80;98778.00;;;;7397741;19;20478;-66
2024/03/22 10:50:12;;;;;;;7.90;6.00;;;;;18.80;98766.00;;;;7399667;19;20026;-66
2024/03/22 10:52:43;;;;;;;10.05;7.25;;;;;18.70;98763.00;;;;7394771;19;20015;-66
2024/03/22 10:55:17;;;;;;;10.48;7.05;;;;;18.60;98757.00;;;;7395715;19;20042;-66
2024/03/22 10:57:43;;;;;;;11.02;7.20;;;;;18.50;98755.00;;;;7396191;19;20348;-66
2024/03/22 11:00:11;;;;;;;9.10;7.38;;;;;18.50;98758.00;;;;7394983;19;20023;-66
2024/03/22 11:02:38;;;;;;;12.95;8.48;;;;;18.60;98737.00;;;;7394905;19;20018;-66
2024/03/22 11:05:05;;;;;;;13.90;7.97;;;;;18.80;98733.00;;;;7395123;19;20043;-66
2024/03/22 11:07:31;;;;;;;9.52;8.10;;;;;18.90;98734.00;;;;7392859;19;20011;-66
2024/03/22 11:09:58;;;;;;;10.90;8.30;;;;;19.10;98732.00;;;;7394000;19;20035;-67
2024/03/22 11:12:25;;;;;;;12.63;8.65;;;;;19.20;98735.00;;;;7394011;19;20732;-66
2024/03/22 11:14:53;;;;;;;11.27;9.15;;;;;19.40;98726.00;;;;7394580;19;20027;-66
2024/03/22 11:17:18;;;;;;;12.52;8.82;;;;;19.50;98723.00;;;;7396521;19;20345;-66
2024/03/22 11:19:44;;;;;;;12.13;8.90;;;;;19.60;98723.00;;;;7398373;19;20034;-67
2024/03/22 11:22:11;;;;;;;12.60;8.85;;;;;19.60;98713.00;;;;7393879;19;20010;-70
2024/03/22 11:24:37;;;;;;;12.75;9.02;;;;;19.70;98719.00;;;;7394633;19;20039;-67
2024/03/22 11:27:03;;;;;;;12.13;8.85;;;;;19.80;98710.00;;;;7393283;19;20021;-66
2024/03/22 11:29:29;;;;;;;12.23;9.57;;;;;19.90;98710.00;;;;7395324;19;20018;-68
2024/03/22 11:31:55;;;;;;;17.00;10.45;;;;;20.10;98701.00;;;;7392422;19;20078;-67
2024/03/22 11:34:21;;;;;;;14.02;10.13;;;;;20.10;98695.00;;;;7392335;19;20036;-67
2024/03/22 11:36:47;;;;;;;14.35;11.05;;;;;20.00;98699.00;;;;7393977;19;20010;-67
2024/03/22 11:39:13;;;;;;;13.10;11.02;;;;;20.00;98697.00;;;;7401908;19;20019;-67
2024/03/22 11:41:39;;;;;;;14.90;12.13;;;;;20.00;98684.00;;;;7408388;19;20010;-67
2024/03/22 11:44:05;;;;;;;16.33;10.77;;;;;20.00;98683.00;;;;7404360;19;20018;-66
2024/03/22 11:46:31;;;;;;;16.20;11.40;;;;;20.10;98678.00;;;;7398972;19;20010;-67
2024/03/22 11:48:58;;;;;;;14.40;10.63;;;;;20.00;98681.00;;;;7400709;19;20034;-65
2024/03/22 11:51:24;;;;;;;13.43;11.30;;;;;20.00;98685.00;;;;7395301;19;20018;-65
2024/03/22 11:53:51;;;;;;;18.10;13.18;;;;;20.00;98671.00;;;;7395954;19;20014;-65
2024/03/22 11:56:18;;;;;;;16.27;12.50;;;;;20.00;98661.00;;;;7394035;19;20438;-66
2024/03/22 11:58:49;;;;;;;16.50;12.52;;;;;20.10;98664.00;;;;7394619;19;20017;-66
2024/03/22 12:01:15;;;;;;;17.35;12.43;;;;;20.30;98657.00;;;;7394028;19;20010;-66
2024/03/22 12:03:43;;;;;;;17.15;13.52;;;;;20.50;98656.00;;;;7394279;19;20365;-67
2024/03/22 12:06:10;;;;;;;19.10;13.38;;;;;20.60;98656.00;;;;7393269;19;20011;-66
2024/03/22 12:08:40;;;;;;;18.23;14.60;;;;;20.70;98657.00;;;;7393737;19;20478;-66
2024/03/22 12:11:09;;;;;;;20.95;15.23;;;;;20.70;98652.00;;;;7391816;19;20026;-66